< Typhoon 201503 2015 Season Typhoon 201505 >
Typhoon 201504 (MAYSAK)
General InformationTrack Information on Google MapsDetailed Wind InformationForecast History on Google MapsAccess Analytics MapList of All Images || NewsDisaster Info.WeblogTrackbackTyphoon FrontTwiphoonTyphoon Now!Typhoon ImaginationDisaster Info. XMLResourceGoogle EarthGE AnimationAtom FeedGeoJSON
Detalied Best Track (Time Zone = UTC)
Year Month Day Hour Lat. Long. Pressure (hPa) Wind (kt) Class Image Chart
2015 3 26 12 6.7 159.9 1008 0 2 Image Chart
2015 3 26 18 6.9 159.2 1006 0 2 Image Chart
2015 3 27 00 7.2 158.5 1008 0 2 Image Chart
2015 3 27 06 7.4 157.9 1006 0 2 Image Chart
2015 3 27 12 7.7 157.4 1006 0 2 Image Chart
2015 3 27 18 7.8 156.8 1002 35 3 Image Chart
2015 3 28 00 7.8 155.5 998 35 3 Image Chart
2015 3 28 06 7.6 154.4 994 45 3 Image Chart
2015 3 28 12 7.3 153.9 985 50 4 Image Chart
2015 3 28 18 7.4 153.1 980 55 4 Image Chart
2015 3 29 00 7.6 152.2 970 65 5 Image Chart
2015 3 29 06 7.8 151.1 965 70 5 Image Chart
2015 3 29 12 8.0 149.5 950 80 5 Image Chart
2015 3 29 18 8.1 148.0 950 80 5 Image Chart
2015 3 30 00 8.5 146.9 950 80 5 Image Chart
2015 3 30 06 8.8 145.7 950 80 5 Image Chart
2015 3 30 12 9.0 144.9 940 85 5 Image Chart
2015 3 30 18 9.4 143.7 925 95 5 Image Chart
2015 3 31 00 9.6 142.5 915 100 5 Image Chart
2015 3 31 06 10.0 141.3 910 105 5 Image Chart
2015 3 31 12 10.2 139.9 910 105 5 Image Chart
2015 3 31 18 10.3 138.7 910 105 5 Image Chart
2015 4 1 00 10.7 137.7 910 105 5 Image Chart
2015 4 1 06 11.2 136.6 910 105 5 Image Chart
2015 4 1 12 11.7 135.7 910 105 5 Image Chart
2015 4 1 18 12.0 134.7 910 105 5 Image Chart
2015 4 2 00 12.3 134.0 925 95 5 Image Chart
2015 4 2 06 12.8 133.4 940 85 5 Image Chart
2015 4 2 12 13.2 132.6 940 85 5 Image Chart
2015 4 2 18 13.7 132.0 940 85 5 Image Chart
2015 4 3 00 13.9 131.1 945 85 5 Image Chart
2015 4 3 06 14.1 130.0 950 80 5 Image Chart
2015 4 3 12 14.1 129.0 955 75 5 Image Chart
2015 4 3 18 14.3 127.8 960 75 5 Image Chart
2015 4 4 00 14.7 126.6 965 70 5 Image Chart
2015 4 4 06 15.2 125.1 980 55 4 Image Chart
2015 4 4 12 15.7 123.8 985 50 4 Image Chart
2015 4 4 18 16.0 123.0 996 40 3 Image Chart
2015 4 5 00 16.2 122.6 1000 35 3 Image Chart
2015 4 5 06 18.6 121.1 1004 0 2 Image Chart
2015 4 5 12 19.5 119.4 1008 0 2 Image Chart
2015 4 5 18 20.3 118.2 1008 0 2 Image Chart
2015 4 6 00 20.3 117.4 1008 0 2 Image Chart
2015 4 6 06 20.1 117.2 1008 0 2 Image Chart
2015 4 6 12 20.0 117.3 1008 0 2 Image Chart
2015 4 6 18 20.3 117.2 1008 0 2 Image Chart
2015 4 7 00 20.6 116.8 1010 0 2 Image Chart
Japan Meteorological Agency Best Track Data | Correction Date : 2015-05-19
< Typhoon 201503 2015 Season Typhoon 201505 >

Help